sensor_id;sensor_type;location;lat;lon;timestamp;P1;durP1;ratioP1;P2;durP2;ratioP2
50301;SDS011;36550;50.472;19.744;2023-07-02T00:00:34;10.20;;;7.70;;
50301;SDS011;36550;50.472;19.744;2023-07-02T00:03:20;14.20;;;9.80;;
50301;SDS011;36550;50.472;19.744;2023-07-02T00:06:06;17.20;;;10.80;;
50301;SDS011;36550;50.472;19.744;2023-07-02T00:08:50;15.30;;;9.90;;
50301;SDS011;36550;50.472;19.744;2023-07-02T00:11:34;12.80;;;8.10;;
50301;SDS011;36550;50.472;19.744;2023-07-02T00:14:19;23.00;;;11.80;;
50301;SDS011;36550;50.472;19.744;2023-07-02T00:17:02;17.00;;;12.60;;
50301;SDS011;36550;50.472;19.744;2023-07-02T00:19:47;20.10;;;13.50;;
50301;SDS011;36550;50.472;19.744;2023-07-02T00:22:35;20.50;;;13.00;;
50301;SDS011;36550;50.472;19.744;2023-07-02T00:25:19;22.00;;;12.70;;
50301;SDS011;36550;50.472;19.744;2023-07-02T00:28:04;19.00;;;11.90;;
50301;SDS011;36550;50.472;19.744;2023-07-02T00:30:48;19.30;;;12.80;;
50301;SDS011;36550;50.472;19.744;2023-07-02T00:33:32;18.40;;;12.90;;
50301;SDS011;36550;50.472;19.744;2023-07-02T00:36:16;19.50;;;12.20;;
50301;SDS011;36550;50.472;19.744;2023-07-02T00:39:00;17.00;;;12.10;;
50301;SDS011;36550;50.472;19.744;2023-07-02T00:41:44;17.40;;;12.70;;
50301;SDS011;36550;50.472;19.744;2023-07-02T00:44:32;28.30;;;13.20;;
50301;SDS011;36550;50.472;19.744;2023-07-02T00:47:16;19.00;;;13.00;;
50301;SDS011;36550;50.472;19.744;2023-07-02T00:50:00;21.80;;;14.20;;
50301;SDS011;36550;50.472;19.744;2023-07-02T00:52:45;21.40;;;14.30;;
50301;SDS011;36550;50.472;19.744;2023-07-02T00:55:30;21.70;;;13.80;;
50301;SDS011;36550;50.472;19.744;2023-07-02T00:58:14;21.30;;;14.30;;
50301;SDS011;36550;50.472;19.744;2023-07-02T01:00:59;20.60;;;14.40;;
50301;SDS011;36550;50.472;19.744;2023-07-02T01:03:56;22.70;;;14.20;;
50301;SDS011;36550;50.472;19.744;2023-07-02T01:06:42;18.80;;;13.30;;
50301;SDS011;36550;50.472;19.744;2023-07-02T01:09:27;19.50;;;13.50;;
50301;SDS011;36550;50.472;19.744;2023-07-02T01:12:10;21.60;;;13.50;;
50301;SDS011;36550;50.472;19.744;2023-07-02T01:14:56;19.40;;;13.80;;
50301;SDS011;36550;50.472;19.744;2023-07-02T01:17:44;22.80;;;14.40;;
50301;SDS011;36550;50.472;19.744;2023-07-02T01:20:30;23.20;;;14.30;;
50301;SDS011;36550;50.472;19.744;2023-07-02T01:23:15;23.70;;;14.30;;
50301;SDS011;36550;50.472;19.744;2023-07-02T01:25:59;28.20;;;15.10;;
50301;SDS011;36550;50.472;19.744;2023-07-02T01:28:44;20.70;;;13.40;;
50301;SDS011;36550;50.472;19.744;2023-07-02T01:31:28;20.70;;;12.90;;
50301;SDS011;36550;50.472;19.744;2023-07-02T01:34:12;21.00;;;13.00;;
50301;SDS011;36550;50.472;19.744;2023-07-02T01:36:57;20.20;;;13.20;;
50301;SDS011;36550;50.472;19.744;2023-07-02T01:39:41;19.50;;;12.90;;
50301;SDS011;36550;50.472;19.744;2023-07-02T01:42:25;19.60;;;13.00;;
50301;SDS011;36550;50.472;19.744;2023-07-02T01:45:09;22.30;;;14.20;;
50301;SDS011;36550;50.472;19.744;2023-07-02T01:47:54;24.90;;;15.00;;
50301;SDS011;36550;50.472;19.744;2023-07-02T01:50:37;21.30;;;14.20;;
50301;SDS011;36550;50.472;19.744;2023-07-02T01:53:21;29.80;;;15.60;;
50301;SDS011;36550;50.472;19.744;2023-07-02T01:56:05;21.70;;;14.90;;
50301;SDS011;36550;50.472;19.744;2023-07-02T01:58:50;22.30;;;13.80;;
50301;SDS011;36550;50.472;19.744;2023-07-02T02:01:33;28.20;;;15.20;;
50301;SDS011;36550;50.472;19.744;2023-07-02T02:04:18;27.90;;;15.20;;
50301;SDS011;36550;50.472;19.744;2023-07-02T02:07:02;22.30;;;14.20;;
50301;SDS011;36550;50.472;19.744;2023-07-02T02:09:46;22.60;;;13.80;;
50301;SDS011;36550;50.472;19.744;2023-07-02T02:12:30;23.10;;;13.60;;
50301;SDS011;36550;50.472;19.744;2023-07-02T02:15:14;22.00;;;14.20;;
50301;SDS011;36550;50.472;19.744;2023-07-02T02:17:58;22.70;;;14.50;;
50301;SDS011;36550;50.472;19.744;2023-07-02T02:20:42;31.00;;;14.80;;
50301;SDS011;36550;50.472;19.744;2023-07-02T02:23:27;22.50;;;13.80;;
50301;SDS011;36550;50.472;19.744;2023-07-02T02:26:11;22.30;;;13.70;;
50301;SDS011;36550;50.472;19.744;2023-07-02T02:28:55;20.90;;;13.20;;
50301;SDS011;36550;50.472;19.744;2023-07-02T02:31:40;23.70;;;14.30;;
50301;SDS011;36550;50.472;19.744;2023-07-02T02:34:24;20.60;;;13.80;;
50301;SDS011;36550;50.472;19.744;2023-07-02T02:37:08;22.60;;;14.20;;
50301;SDS011;36550;50.472;19.744;2023-07-02T02:39:52;23.00;;;14.50;;
50301;SDS011;36550;50.472;19.744;2023-07-02T02:42:36;22.20;;;14.40;;
50301;SDS011;36550;50.472;19.744;2023-07-02T02:45:22;21.20;;;14.50;;
50301;SDS011;36550;50.472;19.744;2023-07-02T02:48:06;23.10;;;13.00;;
50301;SDS011;36550;50.472;19.744;2023-07-02T02:50:49;23.60;;;14.50;;
50301;SDS011;36550;50.472;19.744;2023-07-02T02:53:34;24.20;;;14.20;;
50301;SDS011;36550;50.472;19.744;2023-07-02T02:56:18;26.80;;;14.90;;
50301;SDS011;36550;50.472;19.744;2023-07-02T02:59:02;27.20;;;14.60;;
50301;SDS011;36550;50.472;19.744;2023-07-02T03:01:46;20.40;;;13.90;;
50301;SDS011;36550;50.472;19.744;2023-07-02T03:04:30;22.70;;;13.70;;
50301;SDS011;36550;50.472;19.744;2023-07-02T03:07:17;24.50;;;14.20;;
50301;SDS011;36550;50.472;19.744;2023-07-02T03:10:02;24.70;;;14.40;;
50301;SDS011;36550;50.472;19.744;2023-07-02T03:12:47;25.10;;;14.50;;
50301;SDS011;36550;50.472;19.744;2023-07-02T03:15:31;27.20;;;13.70;;
50301;SDS011;36550;50.472;19.744;2023-07-02T03:18:15;26.80;;;14.60;;
50301;SDS011;36550;50.472;19.744;2023-07-02T03:21:00;22.00;;;13.80;;
50301;SDS011;36550;50.472;19.744;2023-07-02T03:23:44;25.40;;;14.30;;
50301;SDS011;36550;50.472;19.744;2023-07-02T03:26:29;23.60;;;13.90;;
50301;SDS011;36550;50.472;19.744;2023-07-02T03:29:13;21.90;;;14.30;;
50301;SDS011;36550;50.472;19.744;2023-07-02T03:31:57;22.40;;;14.10;;
50301;SDS011;36550;50.472;19.744;2023-07-02T03:34:41;24.00;;;14.90;;
50301;SDS011;36550;50.472;19.744;2023-07-02T03:37:26;23.30;;;14.90;;
50301;SDS011;36550;50.472;19.744;2023-07-02T03:40:10;22.60;;;15.30;;
50301;SDS011;36550;50.472;19.744;2023-07-02T03:42:54;22.10;;;15.00;;
50301;SDS011;36550;50.472;19.744;2023-07-02T03:45:38;22.10;;;13.70;;
50301;SDS011;36550;50.472;19.744;2023-07-02T03:48:22;18.60;;;13.10;;
50301;SDS011;36550;50.472;19.744;2023-07-02T03:51:06;20.10;;;13.10;;
50301;SDS011;36550;50.472;19.744;2023-07-02T03:53:50;18.10;;;11.70;;
50301;SDS011;36550;50.472;19.744;2023-07-02T03:56:34;20.30;;;12.10;;
50301;SDS011;36550;50.472;19.744;2023-07-02T03:59:19;15.50;;;11.00;;
50301;SDS011;36550;50.472;19.744;2023-07-02T04:02:03;18.80;;;11.60;;
50301;SDS011;36550;50.472;19.744;2023-07-02T04:04:48;17.30;;;10.40;;
50301;SDS011;36550;50.472;19.744;2023-07-02T04:07:32;19.30;;;10.30;;
50301;SDS011;36550;50.472;19.744;2023-07-02T04:10:16;17.30;;;10.90;;
50301;SDS011;36550;50.472;19.744;2023-07-02T04:13:00;14.90;;;9.90;;
50301;SDS011;36550;50.472;19.744;2023-07-02T04:15:45;15.20;;;10.00;;
50301;SDS011;36550;50.472;19.744;2023-07-02T04:18:29;15.80;;;9.40;;
50301;SDS011;36550;50.472;19.744;2023-07-02T04:21:13;14.70;;;8.30;;
50301;SDS011;36550;50.472;19.744;2023-07-02T04:23:57;14.10;;;8.20;;
50301;SDS011;36550;50.472;19.744;2023-07-02T04:26:43;15.30;;;8.70;;
50301;SDS011;36550;50.472;19.744;2023-07-02T04:29:27;11.90;;;8.00;;
50301;SDS011;36550;50.472;19.744;2023-07-02T04:32:11;11.30;;;8.30;;
50301;SDS011;36550;50.472;19.744;2023-07-02T04:34:56;11.70;;;8.70;;
50301;SDS011;36550;50.472;19.744;2023-07-02T04:37:40;12.10;;;8.30;;
50301;SDS011;36550;50.472;19.744;2023-07-02T04:40:24;10.80;;;7.60;;
50301;SDS011;36550;50.472;19.744;2023-07-02T04:43:09;15.60;;;8.40;;
50301;SDS011;36550;50.472;19.744;2023-07-02T04:45:54;12.90;;;8.80;;
50301;SDS011;36550;50.472;19.744;2023-07-02T04:48:39;12.80;;;8.80;;
50301;SDS011;36550;50.472;19.744;2023-07-02T04:51:24;15.70;;;9.50;;
50301;SDS011;36550;50.472;19.744;2023-07-02T04:54:08;14.80;;;8.50;;
50301;SDS011;36550;50.472;19.744;2023-07-02T04:56:53;13.90;;;8.50;;
50301;SDS011;36550;50.472;19.744;2023-07-02T04:59:37;14.30;;;8.60;;
50301;SDS011;36550;50.472;19.744;2023-07-02T05:02:21;16.60;;;7.90;;
50301;SDS011;36550;50.472;19.744;2023-07-02T05:05:06;13.50;;;8.20;;
50301;SDS011;36550;50.472;19.744;2023-07-02T05:07:54;12.10;;;8.00;;
50301;SDS011;36550;50.472;19.744;2023-07-02T05:10:39;10.80;;;7.50;;
50301;SDS011;36550;50.472;19.744;2023-07-02T05:13:23;9.50;;;7.60;;
50301;SDS011;36550;50.472;19.744;2023-07-02T05:16:34;12.70;;;7.60;;
50301;SDS011;36550;50.472;19.744;2023-07-02T05:19:18;10.20;;;7.30;;
50301;SDS011;36550;50.472;19.744;2023-07-02T05:22:03;9.40;;;7.00;;
50301;SDS011;36550;50.472;19.744;2023-07-02T05:25:01;17.70;;;8.20;;
50301;SDS011;36550;50.472;19.744;2023-07-02T05:28:00;10.40;;;7.10;;
50301;SDS011;36550;50.472;19.744;2023-07-02T05:30:45;10.60;;;7.50;;
50301;SDS011;36550;50.472;19.744;2023-07-02T05:33:38;11.60;;;7.30;;
50301;SDS011;36550;50.472;19.744;2023-07-02T05:36:23;13.30;;;8.20;;
50301;SDS011;36550;50.472;19.744;2023-07-02T05:39:27;13.60;;;7.60;;
50301;SDS011;36550;50.472;19.744;2023-07-02T05:42:32;11.70;;;8.10;;
50301;SDS011;36550;50.472;19.744;2023-07-02T05:45:18;12.80;;;7.30;;
50301;SDS011;36550;50.472;19.744;2023-07-02T05:48:07;16.40;;;7.40;;
50301;SDS011;36550;50.472;19.744;2023-07-02T05:50:51;10.90;;;7.50;;
50301;SDS011;36550;50.472;19.744;2023-07-02T05:53:37;10.80;;;7.20;;
50301;SDS011;36550;50.472;19.744;2023-07-02T06:07:05;11.10;;;6.60;;
50301;SDS011;36550;50.472;19.744;2023-07-02T06:09:49;10.60;;;6.70;;
50301;SDS011;36550;50.472;19.744;2023-07-02T06:12:34;10.70;;;6.50;;
50301;SDS011;36550;50.472;19.744;2023-07-02T06:15:18;14.30;;;6.50;;
50301;SDS011;36550;50.472;19.744;2023-07-02T06:18:03;10.70;;;5.90;;
50301;SDS011;36550;50.472;19.744;2023-07-02T06:20:48;9.00;;;6.10;;
50301;SDS011;36550;50.472;19.744;2023-07-02T06:23:39;7.50;;;5.70;;
50301;SDS011;36550;50.472;19.744;2023-07-02T06:26:27;10.00;;;5.70;;
50301;SDS011;36550;50.472;19.744;2023-07-02T06:29:31;9.50;;;5.40;;
50301;SDS011;36550;50.472;19.744;2023-07-02T06:32:15;9.00;;;5.30;;
50301;SDS011;36550;50.472;19.744;2023-07-02T06:35:00;9.70;;;5.40;;
50301;SDS011;36550;50.472;19.744;2023-07-02T06:37:59;9.40;;;4.20;;
50301;SDS011;36550;50.472;19.744;2023-07-02T06:40:43;7.30;;;3.70;;
50301;SDS011;36550;50.472;19.744;2023-07-02T06:43:31;9.50;;;4.10;;
50301;SDS011;36550;50.472;19.744;2023-07-02T06:46:16;9.00;;;4.80;;
50301;SDS011;36550;50.472;19.744;2023-07-02T06:49:24;6.90;;;4.50;;
50301;SDS011;36550;50.472;19.744;2023-07-02T06:52:09;6.40;;;3.60;;
50301;SDS011;36550;50.472;19.744;2023-07-02T06:54:53;4.80;;;3.20;;
50301;SDS011;36550;50.472;19.744;2023-07-02T06:57:44;9.50;;;3.20;;
50301;SDS011;36550;50.472;19.744;2023-07-02T07:00:30;5.80;;;2.70;;
50301;SDS011;36550;50.472;19.744;2023-07-02T07:03:35;5.20;;;2.90;;
50301;SDS011;36550;50.472;19.744;2023-07-02T07:06:20;6.00;;;3.10;;
50301;SDS011;36550;50.472;19.744;2023-07-02T07:09:18;4.10;;;2.30;;
50301;SDS011;36550;50.472;19.744;2023-07-02T07:12:03;4.30;;;2.50;;
50301;SDS011;36550;50.472;19.744;2023-07-02T07:14:47;4.90;;;1.90;;
50301;SDS011;36550;50.472;19.744;2023-07-02T07:17:36;2.80;;;1.90;;
50301;SDS011;36550;50.472;19.744;2023-07-02T07:20:21;5.60;;;2.00;;
50301;SDS011;36550;50.472;19.744;2023-07-02T07:23:25;7.70;;;2.40;;
50301;SDS011;36550;50.472;19.744;2023-07-02T07:26:09;5.70;;;2.10;;
50301;SDS011;36550;50.472;19.744;2023-07-02T07:28:54;3.60;;;1.90;;
50301;SDS011;36550;50.472;19.744;2023-07-02T07:31:39;3.40;;;1.60;;
50301;SDS011;36550;50.472;19.744;2023-07-02T07:34:31;4.20;;;2.10;;
50301;SDS011;36550;50.472;19.744;2023-07-02T07:37:15;2.90;;;1.90;;
50301;SDS011;36550;50.472;19.744;2023-07-02T07:40:00;2.60;;;1.70;;
50301;SDS011;36550;50.472;19.744;2023-07-02T07:42:50;3.40;;;2.00;;
50301;SDS011;36550;50.472;19.744;2023-07-02T07:45:35;4.00;;;2.10;;
50301;SDS011;36550;50.472;19.744;2023-07-02T07:48:26;5.30;;;2.00;;
50301;SDS011;36550;50.472;19.744;2023-07-02T07:51:11;4.20;;;2.40;;
50301;SDS011;36550;50.472;19.744;2023-07-02T07:53:55;3.50;;;2.30;;
50301;SDS011;36550;50.472;19.744;2023-07-02T07:56:39;3.00;;;2.20;;
50301;SDS011;36550;50.472;19.744;2023-07-02T07:59:24;6.60;;;2.20;;
50301;SDS011;36550;50.472;19.744;2023-07-02T08:02:15;3.40;;;1.80;;
50301;SDS011;36550;50.472;19.744;2023-07-02T08:05:02;4.40;;;1.90;;
50301;SDS011;36550;50.472;19.744;2023-07-02T08:07:47;2.70;;;1.90;;
50301;SDS011;36550;50.472;19.744;2023-07-02T08:10:33;2.90;;;1.70;;
50301;SDS011;36550;50.472;19.744;2023-07-02T08:13:17;2.50;;;1.50;;
50301;SDS011;36550;50.472;19.744;2023-07-02T08:16:02;3.80;;;1.50;;
50301;SDS011;36550;50.472;19.744;2023-07-02T08:18:47;5.10;;;1.80;;
50301;SDS011;36550;50.472;19.744;2023-07-02T08:21:52;4.80;;;2.00;;
50301;SDS011;36550;50.472;19.744;2023-07-02T08:24:37;4.10;;;1.60;;
50301;SDS011;36550;50.472;19.744;2023-07-02T08:27:28;2.50;;;1.50;;
50301;SDS011;36550;50.472;19.744;2023-07-02T08:30:28;2.60;;;1.70;;
50301;SDS011;36550;50.472;19.744;2023-07-02T08:33:12;5.50;;;1.90;;
50301;SDS011;36550;50.472;19.744;2023-07-02T08:35:56;2.90;;;1.40;;
50301;SDS011;36550;50.472;19.744;2023-07-02T08:38:41;2.90;;;1.50;;
50301;SDS011;36550;50.472;19.744;2023-07-02T08:41:27;4.50;;;1.40;;
50301;SDS011;36550;50.472;19.744;2023-07-02T08:44:14;2.00;;;1.50;;
50301;SDS011;36550;50.472;19.744;2023-07-02T08:47:03;3.80;;;1.60;;
50301;SDS011;36550;50.472;19.744;2023-07-02T08:50:08;2.90;;;1.50;;
50301;SDS011;36550;50.472;19.744;2023-07-02T08:52:53;3.30;;;1.50;;
50301;SDS011;36550;50.472;19.744;2023-07-02T08:56:18;4.10;;;1.70;;
50301;SDS011;36550;50.472;19.744;2023-07-02T08:59:24;2.80;;;1.40;;
50301;SDS011;36550;50.472;19.744;2023-07-02T09:02:08;5.20;;;1.50;;
50301;SDS011;36550;50.472;19.744;2023-07-02T09:04:58;3.10;;;1.40;;
50301;SDS011;36550;50.472;19.744;2023-07-02T09:07:46;4.40;;;1.50;;
50301;SDS011;36550;50.472;19.744;2023-07-02T09:10:46;3.20;;;1.30;;
50301;SDS011;36550;50.472;19.744;2023-07-02T09:16:32;2.50;;;1.80;;
50301;SDS011;36550;50.472;19.744;2023-07-02T09:19:25;3.50;;;2.00;;
50301;SDS011;36550;50.472;19.744;2023-07-02T09:22:29;4.60;;;2.10;;
50301;SDS011;36550;50.472;19.744;2023-07-02T09:25:14;3.00;;;1.90;;
50301;SDS011;36550;50.472;19.744;2023-07-02T09:27:59;2.90;;;1.90;;
50301;SDS011;36550;50.472;19.744;2023-07-02T09:31:16;2.40;;;1.70;;
50301;SDS011;36550;50.472;19.744;2023-07-02T09:34:00;3.90;;;1.80;;
50301;SDS011;36550;50.472;19.744;2023-07-02T09:37:00;3.30;;;1.80;;
50301;SDS011;36550;50.472;19.744;2023-07-02T09:40:06;2.50;;;1.80;;
50301;SDS011;36550;50.472;19.744;2023-07-02T09:43:13;3.60;;;1.80;;
50301;SDS011;36550;50.472;19.744;2023-07-02T09:46:24;3.10;;;1.90;;
50301;SDS011;36550;50.472;19.744;2023-07-02T09:49:37;3.10;;;1.80;;
50301;SDS011;36550;50.472;19.744;2023-07-02T09:52:44;2.60;;;1.80;;
50301;SDS011;36550;50.472;19.744;2023-07-02T09:55:47;3.60;;;1.80;;
50301;SDS011;36550;50.472;19.744;2023-07-02T09:58:55;3.50;;;2.10;;
50301;SDS011;36550;50.472;19.744;2023-07-02T10:05:05;4.60;;;2.00;;
50301;SDS011;36550;50.472;19.744;2023-07-02T10:08:55;2.60;;;1.90;;
50301;SDS011;36550;50.472;19.744;2023-07-02T10:11:41;3.70;;;2.70;;
50301;SDS011;36550;50.472;19.744;2023-07-02T10:14:53;4.10;;;2.30;;
50301;SDS011;36550;50.472;19.744;2023-07-02T10:18:11;2.40;;;1.90;;
50301;SDS011;36550;50.472;19.744;2023-07-02T10:22:04;2.30;;;1.70;;
50301;SDS011;36550;50.472;19.744;2023-07-02T10:24:55;3.70;;;1.60;;
50301;SDS011;36550;50.472;19.744;2023-07-02T10:27:42;3.80;;;1.70;;
50301;SDS011;36550;50.472;19.744;2023-07-02T10:30:32;5.00;;;1.50;;
50301;SDS011;36550;50.472;19.744;2023-07-02T10:33:19;2.40;;;1.60;;
50301;SDS011;36550;50.472;19.744;2023-07-02T10:36:24;3.50;;;1.20;;
50301;SDS011;36550;50.472;19.744;2023-07-02T10:39:10;4.70;;;1.40;;
50301;SDS011;36550;50.472;19.744;2023-07-02T10:42:02;2.10;;;1.60;;
50301;SDS011;36550;50.472;19.744;2023-07-02T10:44:51;1.50;;;1.20;;
50301;SDS011;36550;50.472;19.744;2023-07-02T10:47:39;2.90;;;1.20;;
50301;SDS011;36550;50.472;19.744;2023-07-02T10:50:26;1.50;;;1.10;;
50301;SDS011;36550;50.472;19.744;2023-07-02T10:53:15;5.40;;;1.50;;
50301;SDS011;36550;50.472;19.744;2023-07-02T10:56:01;3.60;;;2.40;;
50301;SDS011;36550;50.472;19.744;2023-07-02T10:58:48;4.30;;;1.60;;
50301;SDS011;36550;50.472;19.744;2023-07-02T11:01:43;2.00;;;1.50;;
50301;SDS011;36550;50.472;19.744;2023-07-02T11:05:08;3.10;;;1.50;;
50301;SDS011;36550;50.472;19.744;2023-07-02T11:08:07;3.90;;;1.60;;
50301;SDS011;36550;50.472;19.744;2023-07-02T11:11:15;2.30;;;1.30;;
50301;SDS011;36550;50.472;19.744;2023-07-02T11:14:34;2.00;;;1.30;;
50301;SDS011;36550;50.472;19.744;2023-07-02T11:18:08;1.90;;;1.20;;
50301;SDS011;36550;50.472;19.744;2023-07-02T11:21:12;1.80;;;1.30;;
50301;SDS011;36550;50.472;19.744;2023-07-02T11:24:36;2.80;;;1.50;;
50301;SDS011;36550;50.472;19.744;2023-07-02T11:27:48;2.10;;;1.40;;
50301;SDS011;36550;50.472;19.744;2023-07-02T11:31:27;1.50;;;1.30;;
50301;SDS011;36550;50.472;19.744;2023-07-02T11:34:33;2.90;;;1.80;;
50301;SDS011;36550;50.472;19.744;2023-07-02T11:37:57;2.00;;;1.50;;
50301;SDS011;36550;50.472;19.744;2023-07-02T11:40:42;2.50;;;1.60;;
50301;SDS011;36550;50.472;19.744;2023-07-02T11:43:47;2.00;;;1.40;;
50301;SDS011;36550;50.472;19.744;2023-07-02T11:46:52;3.50;;;2.80;;
50301;SDS011;36550;50.472;19.744;2023-07-02T11:53:02;2.30;;;1.50;;
50301;SDS011;36550;50.472;19.744;2023-07-02T11:56:10;2.20;;;1.60;;
50301;SDS011;36550;50.472;19.744;2023-07-02T11:59:37;3.80;;;1.70;;
50301;SDS011;36550;50.472;19.744;2023-07-02T12:02:24;2.00;;;1.60;;
50301;SDS011;36550;50.472;19.744;2023-07-02T12:05:08;3.00;;;1.70;;
50301;SDS011;36550;50.472;19.744;2023-07-02T12:08:27;2.60;;;1.80;;
50301;SDS011;36550;50.472;19.744;2023-07-02T12:11:51;2.50;;;1.80;;
50301;SDS011;36550;50.472;19.744;2023-07-02T12:14:35;3.00;;;1.60;;
50301;SDS011;36550;50.472;19.744;2023-07-02T12:17:19;3.50;;;1.60;;
50301;SDS011;36550;50.472;19.744;2023-07-02T12:20:03;4.10;;;2.10;;
50301;SDS011;36550;50.472;19.744;2023-07-02T12:23:27;2.40;;;1.70;;
50301;SDS011;36550;50.472;19.744;2023-07-02T12:26:32;3.90;;;2.00;;
50301;SDS011;36550;50.472;19.744;2023-07-02T12:29:37;4.80;;;2.10;;
50301;SDS011;36550;50.472;19.744;2023-07-02T12:33:03;2.30;;;2.00;;
50301;SDS011;36550;50.472;19.744;2023-07-02T12:36:07;4.20;;;2.20;;
50301;SDS011;36550;50.472;19.744;2023-07-02T12:39:31;8.10;;;6.30;;
50301;SDS011;36550;50.472;19.744;2023-07-02T12:42:25;4.00;;;2.50;;
50301;SDS011;36550;50.472;19.744;2023-07-02T12:45:50;3.30;;;1.90;;
50301;SDS011;36550;50.472;19.744;2023-07-02T12:48:49;3.50;;;1.80;;
50301;SDS011;36550;50.472;19.744;2023-07-02T12:51:33;3.40;;;1.80;;
50301;SDS011;36550;50.472;19.744;2023-07-02T12:54:17;3.10;;;1.70;;
50301;SDS011;36550;50.472;19.744;2023-07-02T12:57:01;2.80;;;1.80;;
50301;SDS011;36550;50.472;19.744;2023-07-02T13:00:20;2.50;;;2.10;;
50301;SDS011;36550;50.472;19.744;2023-07-02T13:03:29;2.60;;;1.80;;
50301;SDS011;36550;50.472;19.744;2023-07-02T13:06:52;2.00;;;1.40;;
50301;SDS011;36550;50.472;19.744;2023-07-02T13:10:00;4.50;;;1.10;;
50301;SDS011;36550;50.472;19.744;2023-07-02T13:13:27;3.90;;;1.60;;
50301;SDS011;36550;50.472;19.744;2023-07-02T13:16:50;2.10;;;0.80;;
50301;SDS011;36550;50.472;19.744;2023-07-02T13:19:55;2.60;;;0.90;;
50301;SDS011;36550;50.472;19.744;2023-07-02T13:23:19;1.10;;;0.60;;
50301;SDS011;36550;50.472;19.744;2023-07-02T13:26:38;1.60;;;0.70;;
50301;SDS011;36550;50.472;19.744;2023-07-02T13:30:04;0.80;;;0.70;;
50301;SDS011;36550;50.472;19.744;2023-07-02T13:32:48;1.10;;;0.50;;
50301;SDS011;36550;50.472;19.744;2023-07-02T13:35:32;1.50;;;0.70;;
50301;SDS011;36550;50.472;19.744;2023-07-02T13:38:17;2.30;;;0.70;;
50301;SDS011;36550;50.472;19.744;2023-07-02T13:41:01;8.60;;;3.80;;
50301;SDS011;36550;50.472;19.744;2023-07-02T13:44:24;3.30;;;1.60;;
50301;SDS011;36550;50.472;19.744;2023-07-02T13:47:50;1.30;;;0.60;;
50301;SDS011;36550;50.472;19.744;2023-07-02T13:50:58;4.40;;;0.80;;
50301;SDS011;36550;50.472;19.744;2023-07-02T13:54:24;3.90;;;1.90;;
50301;SDS011;36550;50.472;19.744;2023-07-02T13:58:08;1.90;;;0.70;;
50301;SDS011;36550;50.472;19.744;2023-07-02T14:01:34;1.40;;;0.90;;
50301;SDS011;36550;50.472;19.744;2023-07-02T14:04:27;1.70;;;0.70;;
50301;SDS011;36550;50.472;19.744;2023-07-02T14:08:11;2.40;;;0.80;;
50301;SDS011;36550;50.472;19.744;2023-07-02T14:11:22;0.90;;;0.70;;
50301;SDS011;36550;50.472;19.744;2023-07-02T14:14:47;3.10;;;0.90;;
50301;SDS011;36550;50.472;19.744;2023-07-02T14:18:11;1.30;;;0.80;;
50301;SDS011;36550;50.472;19.744;2023-07-02T14:21:17;1.90;;;1.20;;
50301;SDS011;36550;50.472;19.744;2023-07-02T14:24:41;3.80;;;1.00;;
50301;SDS011;36550;50.472;19.744;2023-07-02T14:28:19;2.40;;;0.90;;
50301;SDS011;36550;50.472;19.744;2023-07-02T14:31:04;2.90;;;1.10;;
50301;SDS011;36550;50.472;19.744;2023-07-02T14:33:49;2.90;;;1.00;;
50301;SDS011;36550;50.472;19.744;2023-07-02T14:36:34;4.40;;;1.30;;
50301;SDS011;36550;50.472;19.744;2023-07-02T14:39:18;3.60;;;1.30;;
50301;SDS011;36550;50.472;19.744;2023-07-02T14:42:42;3.20;;;1.10;;
50301;SDS011;36550;50.472;19.744;2023-07-02T14:45:49;4.10;;;1.30;;
50301;SDS011;36550;50.472;19.744;2023-07-02T14:48:43;2.40;;;1.10;;
50301;SDS011;36550;50.472;19.744;2023-07-02T14:51:52;2.40;;;1.40;;
50301;SDS011;36550;50.472;19.744;2023-07-02T14:55:16;2.90;;;1.30;;
50301;SDS011;36550;50.472;19.744;2023-07-02T14:58:34;4.70;;;1.10;;
50301;SDS011;36550;50.472;19.744;2023-07-02T15:01:58;2.20;;;1.40;;
50301;SDS011;36550;50.472;19.744;2023-07-02T15:05:02;3.80;;;1.20;;
50301;SDS011;36550;50.472;19.744;2023-07-02T15:07:47;1.80;;;1.20;;
50301;SDS011;36550;50.472;19.744;2023-07-02T15:11:17;1.90;;;1.10;;
50301;SDS011;36550;50.472;19.744;2023-07-02T15:14:59;2.70;;;1.40;;
50301;SDS011;36550;50.472;19.744;2023-07-02T15:18:31;6.50;;;1.20;;
50301;SDS011;36550;50.472;19.744;2023-07-02T15:22:10;2.70;;;1.10;;
50301;SDS011;36550;50.472;19.744;2023-07-02T15:25:41;3.20;;;1.40;;
50301;SDS011;36550;50.472;19.744;2023-07-02T15:29:25;2.40;;;1.30;;
50301;SDS011;36550;50.472;19.744;2023-07-02T15:32:30;2.50;;;1.50;;
50301;SDS011;36550;50.472;19.744;2023-07-02T15:35:55;2.10;;;1.30;;
50301;SDS011;36550;50.472;19.744;2023-07-02T15:39:39;3.90;;;1.70;;
50301;SDS011;36550;50.472;19.744;2023-07-02T15:43:23;5.60;;;1.50;;
50301;SDS011;36550;50.472;19.744;2023-07-02T15:47:07;3.10;;;1.60;;
50301;SDS011;36550;50.472;19.744;2023-07-02T15:50:13;6.90;;;2.40;;
50301;SDS011;36550;50.472;19.744;2023-07-02T15:52:57;3.20;;;1.50;;
50301;SDS011;36550;50.472;19.744;2023-07-02T15:55:42;1.90;;;1.30;;
50301;SDS011;36550;50.472;19.744;2023-07-02T15:58:28;2.60;;;1.80;;
50301;SDS011;36550;50.472;19.744;2023-07-02T16:01:45;4.20;;;1.30;;
50301;SDS011;36550;50.472;19.744;2023-07-02T16:04:52;2.30;;;1.60;;
50301;SDS011;36550;50.472;19.744;2023-07-02T16:08:19;2.10;;;1.70;;
50301;SDS011;36550;50.472;19.744;2023-07-02T16:11:43;2.20;;;1.80;;
50301;SDS011;36550;50.472;19.744;2023-07-02T16:15:07;2.40;;;1.50;;
50301;SDS011;36550;50.472;19.744;2023-07-02T16:18:31;2.20;;;1.50;;
50301;SDS011;36550;50.472;19.744;2023-07-02T16:21:15;2.30;;;1.80;;
50301;SDS011;36550;50.472;19.744;2023-07-02T16:24:00;2.80;;;1.70;;
50301;SDS011;36550;50.472;19.744;2023-07-02T16:27:24;2.40;;;1.60;;
50301;SDS011;36550;50.472;19.744;2023-07-02T16:30:17;2.90;;;1.50;;
50301;SDS011;36550;50.472;19.744;2023-07-02T16:34:01;4.40;;;1.40;;
50301;SDS011;36550;50.472;19.744;2023-07-02T16:37:28;1.50;;;1.30;;
50301;SDS011;36550;50.472;19.744;2023-07-02T16:40:14;3.30;;;1.60;;
50301;SDS011;36550;50.472;19.744;2023-07-02T16:43:39;2.40;;;1.60;;
50301;SDS011;36550;50.472;19.744;2023-07-02T16:46:47;2.70;;;2.00;;
50301;SDS011;36550;50.472;19.744;2023-07-02T16:49:53;7.10;;;2.40;;
50301;SDS011;36550;50.472;19.744;2023-07-02T16:53:17;2.50;;;2.20;;
50301;SDS011;36550;50.472;19.744;2023-07-02T16:56:07;3.00;;;1.90;;
50301;SDS011;36550;50.472;19.744;2023-07-02T16:59:38;3.00;;;1.60;;
50301;SDS011;36550;50.472;19.744;2023-07-02T17:03:03;3.40;;;1.50;;
50301;SDS011;36550;50.472;19.744;2023-07-02T17:06:28;3.90;;;1.20;;
50301;SDS011;36550;50.472;19.744;2023-07-02T17:09:52;1.50;;;1.30;;
50301;SDS011;36550;50.472;19.744;2023-07-02T17:12:57;2.90;;;2.30;;
50301;SDS011;36550;50.472;19.744;2023-07-02T17:15:41;5.20;;;1.70;;
50301;SDS011;36550;50.472;19.744;2023-07-02T17:18:25;2.00;;;1.70;;
50301;SDS011;36550;50.472;19.744;2023-07-02T17:21:10;2.20;;;1.70;;
50301;SDS011;36550;50.472;19.744;2023-07-02T17:23:53;2.00;;;1.50;;
50301;SDS011;36550;50.472;19.744;2023-07-02T17:27:20;3.00;;;1.80;;
50301;SDS011;36550;50.472;19.744;2023-07-02T17:30:20;3.60;;;1.70;;
50301;SDS011;36550;50.472;19.744;2023-07-02T17:33:28;3.10;;;1.40;;
50301;SDS011;36550;50.472;19.744;2023-07-02T17:36:55;1.60;;;1.40;;